Time;durP1;ratioP1;P1;durP2;ratioP2;P2;SDS_P1;SDS_P2;PMS_P1;PMS_P2;Temp;Humidity;BMP_temperature;BMP_pressure;BME280_temperature;BME280_humidity;BME280_pressure;Samples;Min_cycle;Max_cycle;Signal;HPM_P1;HPM_P2
2024/02/15 00:00:12;;;;;;;6.07;3.53;;;;;;;;;;5071272;28;20028;-60
2024/02/15 00:02:38;;;;;;;5.00;3.42;;;;;;;;;;5065736;28;20036;-59
2024/02/15 00:05:04;;;;;;;7.07;3.60;;;;;;;;;;5072308;28;20071;-59
2024/02/15 00:07:30;;;;;;;7.38;3.47;;;;;;;;;;5071496;28;20036;-59
2024/02/15 00:09:58;;;;;;;7.43;3.10;;;;;;;;;;5071614;28;20389;-59
2024/02/15 00:12:24;;;;;;;5.47;3.72;;;;;;;;;;5071435;28;20025;-59
2024/02/15 00:14:50;;;;;;;8.95;3.50;;;;;;;;;;5071532;28;20495;-59
2024/02/15 00:17:18;;;;;;;7.63;3.90;;;;;;;;;;5072166;28;20526;-58
2024/02/15 00:19:44;;;;;;;6.50;3.58;;;;;;;;;;5071834;28;20550;-58
2024/02/15 00:22:10;;;;;;;8.45;3.90;;;;;;;;;;5071429;28;20060;-58
2024/02/15 00:24:37;;;;;;;10.38;4.65;;;;;;;;;;5070113;28;20036;-58
2024/02/15 00:27:04;;;;;;;7.00;3.80;;;;;;;;;;5071240;28;20055;-59
2024/02/15 00:29:31;;;;;;;6.28;4.40;;;;;;;;;;5067052;28;20037;-58
2024/02/15 00:31:57;;;;;;;7.03;5.07;;;;;;;;;;5071556;28;20032;-58
2024/02/15 00:34:26;;;;;;;7.93;4.43;;;;;;;;;;5071434;28;20025;-58
2024/02/15 00:36:51;;;;;;;7.60;4.13;;;;;;;;;;5069285;28;20034;-59
2024/02/15 00:39:20;;;;;;;7.95;4.53;;;;;;;;;;5071289;28;20032;-58
2024/02/15 00:41:47;;;;;;;7.40;4.85;;;;;;;;;;5068869;28;20453;-59
2024/02/15 00:44:12;;;;;;;10.07;4.35;;;;;;;;;;5070885;28;20025;-58
2024/02/15 00:46:39;;;;;;;8.23;4.70;;;;;;;;;;5071378;28;20025;-58
2024/02/15 00:49:08;;;;;;;8.10;4.78;;;;;;;;;;5071224;28;20074;-58
2024/02/15 00:51:35;;;;;;;9.77;4.75;;;;;;;;;;5071769;28;20030;-58
2024/02/15 00:54:01;;;;;;;14.50;5.03;;;;;;;;;;5072050;28;20537;-58
2024/02/15 00:56:27;;;;;;;11.05;5.60;;;;;;;;;;5070962;28;20028;-58
2024/02/15 00:58:53;;;;;;;8.63;5.07;;;;;;;;;;5071795;28;20523;-57
2024/02/15 01:01:19;;;;;;;9.15;5.20;;;;;;;;;;5070419;28;20049;-58
2024/02/15 01:03:45;;;;;;;9.88;5.35;;;;;;;;;;5071176;28;20039;-58
2024/02/15 01:06:11;;;;;;;8.25;5.70;;;;;;;;;;5071840;28;20020;-58
2024/02/15 01:08:37;;;;;;;8.80;5.45;;;;;;;;;;5071244;28;20028;-58
2024/02/15 01:11:04;;;;;;;9.43;5.07;;;;;;;;;;5070995;28;20024;-58
2024/02/15 01:13:30;;;;;;;8.13;5.43;;;;;;;;;;5070666;28;20064;-58
2024/02/15 01:15:56;;;;;;;12.48;5.60;;;;;;;;;;5071115;28;20037;-58
2024/02/15 01:18:22;;;;;;;12.07;5.80;;;;;;;;;;5070341;28;20055;-59
2024/02/15 01:20:48;;;;;;;9.52;5.63;;;;;;;;;;5070316;28;20084;-58
2024/02/15 01:23:14;;;;;;;9.18;6.10;;;;;;;;;;5071583;28;20023;-58
2024/02/15 01:25:40;;;;;;;11.07;6.05;;;;;;;;;;5074183;28;20033;-58
2024/02/15 01:28:06;;;;;;;8.55;5.43;;;;;;;;;;5074720;28;20054;-60
2024/02/15 01:30:32;;;;;;;8.52;5.40;;;;;;;;;;5074553;28;20377;-60
2024/02/15 01:32:58;;;;;;;11.55;6.00;;;;;;;;;;5074513;28;20035;-60
2024/02/15 01:35:25;;;;;;;9.45;6.10;;;;;;;;;;5073533;28;20042;-60
2024/02/15 01:37:52;;;;;;;10.85;6.45;;;;;;;;;;5072145;28;20044;-60
2024/02/15 01:40:18;;;;;;;12.95;6.43;;;;;;;;;;5073048;28;20111;-61
2024/02/15 01:42:45;;;;;;;10.02;6.15;;;;;;;;;;5073657;28;21574;-60
2024/02/15 01:45:11;;;;;;;10.20;6.63;;;;;;;;;;5068337;28;20028;-60
2024/02/15 01:47:39;;;;;;;9.15;5.78;;;;;;;;;;5074736;28;20400;-60
2024/02/15 01:50:05;;;;;;;9.52;7.07;;;;;;;;;;5086093;28;20092;-61
2024/02/15 01:52:32;;;;;;;10.52;6.32;;;;;;;;;;5074480;28;20033;-60
2024/02/15 01:54:58;;;;;;;11.13;6.75;;;;;;;;;;5073670;28;20105;-60
2024/02/15 01:57:24;;;;;;;12.05;6.53;;;;;;;;;;5074811;28;20025;-61
2024/02/15 01:59:54;;;;;;;8.52;5.97;;;;;;;;;;5074434;28;20025;-60
2024/02/15 02:02:21;;;;;;;10.85;6.68;;;;;;;;;;5074007;28;20107;-62
2024/02/15 02:04:47;;;;;;;9.93;6.47;;;;;;;;;;5074179;28;20024;-62
2024/02/15 02:07:14;;;;;;;10.07;6.53;;;;;;;;;;5074448;28;20074;-61
2024/02/15 02:09:40;;;;;;;10.45;6.30;;;;;;;;;;5073379;28;20115;-61
2024/02/15 02:12:07;;;;;;;9.85;6.28;;;;;;;;;;5073924;28;20029;-61
2024/02/15 02:14:33;;;;;;;9.45;6.85;;;;;;;;;;5069230;28;20035;-62
2024/02/15 02:17:13;;;;;;;12.18;6.25;;;;;;;;;;5072843;28;20052;-61
2024/02/15 02:19:39;;;;;;;11.27;6.70;;;;;;;;;;5073388;28;20040;-62
2024/02/15 02:22:05;;;;;;;9.35;6.15;;;;;;;;;;5073557;28;20445;-61
2024/02/15 02:24:37;;;;;;;10.30;6.43;;;;;;;;;;5074822;28;20024;-61
2024/02/15 02:27:03;;;;;;;11.40;6.60;;;;;;;;;;5072675;28;20052;-61
2024/02/15 02:29:30;;;;;;;10.48;7.05;;;;;;;;;;5073985;28;20033;-61
2024/02/15 02:31:57;;;;;;;10.75;6.78;;;;;;;;;;5076450;28;20081;-62
2024/02/15 02:34:24;;;;;;;9.45;6.43;;;;;;;;;;5073149;28;20530;-62
2024/02/15 02:36:51;;;;;;;12.95;6.80;;;;;;;;;;5073473;28;20145;-61
2024/02/15 02:39:17;;;;;;;7.97;6.00;;;;;;;;;;5074466;28;20028;-62
2024/02/15 02:41:43;;;;;;;10.10;7.05;;;;;;;;;;5076794;28;20475;-61
2024/02/15 02:44:09;;;;;;;8.85;5.70;;;;;;;;;;5074211;28;20036;-62
2024/02/15 02:46:35;;;;;;;10.93;6.10;;;;;;;;;;5073189;28;20031;-62
2024/02/15 02:49:01;;;;;;;11.63;6.03;;;;;;;;;;5073594;28;20020;-62
2024/02/15 02:51:27;;;;;;;10.70;6.78;;;;;;;;;;5077449;28;20074;-62
2024/02/15 02:53:53;;;;;;;11.05;6.93;;;;;;;;;;5076806;28;20021;-62
2024/02/15 02:56:19;;;;;;;11.88;7.07;;;;;;;;;;5073187;28;20028;-61
2024/02/15 02:58:45;;;;;;;10.18;6.57;;;;;;;;;;5073299;28;20036;-61
2024/02/15 03:01:13;;;;;;;9.20;5.97;;;;;;;;;;5072200;28;20065;-61
2024/02/15 03:03:39;;;;;;;9.32;6.25;;;;;;;;;;5073272;28;20110;-61
2024/02/15 03:06:06;;;;;;;10.73;6.50;;;;;;;;;;5073266;28;20082;-61
2024/02/15 03:08:32;;;;;;;11.15;6.72;;;;;;;;;;5073628;28;20102;-58
2024/02/15 03:10:57;;;;;;;9.57;6.60;;;;;;;;;;5072831;28;20032;-57
2024/02/15 03:13:23;;;;;;;10.60;6.05;;;;;;;;;;5072902;28;20033;-57
2024/02/15 03:15:50;;;;;;;9.70;6.75;;;;;;;;;;5072672;28;20028;-57
2024/02/15 03:18:17;;;;;;;8.45;5.50;;;;;;;;;;5072048;28;20035;-58
2024/02/15 03:20:43;;;;;;;10.20;7.03;;;;;;;;;;5073160;28;20052;-58
2024/02/15 03:23:09;;;;;;;12.48;7.00;;;;;;;;;;5072343;28;20442;-60
2024/02/15 03:25:35;;;;;;;13.10;6.55;;;;;;;;;;5071748;28;20048;-58
2024/02/15 03:28:02;;;;;;;9.55;6.40;;;;;;;;;;5070545;28;20031;-57
2024/02/15 03:30:30;;;;;;;10.70;7.07;;;;;;;;;;5072576;28;20514;-58
2024/02/15 03:32:56;;;;;;;9.57;6.55;;;;;;;;;;5072166;28;20096;-58
2024/02/15 03:35:23;;;;;;;12.68;7.30;;;;;;;;;;5071085;28;20017;-57
2024/02/15 03:37:52;;;;;;;12.82;7.10;;;;;;;;;;5072964;28;20074;-58
2024/02/15 03:40:19;;;;;;;8.60;6.35;;;;;;;;;;5071971;28;20513;-57
2024/02/15 03:42:45;;;;;;;9.18;6.30;;;;;;;;;;5072713;28;20016;-58
2024/02/15 03:45:11;;;;;;;10.43;6.85;;;;;;;;;;5072086;28;20108;-58
2024/02/15 03:47:37;;;;;;;11.82;6.90;;;;;;;;;;5072082;28;20016;-57
2024/02/15 03:50:08;;;;;;;12.60;7.55;;;;;;;;;;5071317;28;20032;-59
2024/02/15 03:52:34;;;;;;;12.20;6.70;;;;;;;;;;5073256;28;20028;-58
2024/02/15 03:55:01;;;;;;;13.20;8.23;;;;;;;;;;5071759;28;20032;-58
2024/02/15 03:57:28;;;;;;;12.35;7.43;;;;;;;;;;5072529;28;20036;-59
2024/02/15 03:59:56;;;;;;;11.45;6.95;;;;;;;;;;5072297;28;20033;-57
2024/02/15 04:02:23;;;;;;;12.57;6.95;;;;;;;;;;5069250;28;20495;-58
2024/02/15 04:04:49;;;;;;;11.05;6.50;;;;;;;;;;5078739;28;20394;-57
2024/02/15 04:07:16;;;;;;;12.65;7.07;;;;;;;;;;5074340;28;20024;-57
2024/02/15 04:09:42;;;;;;;10.93;7.00;;;;;;;;;;5070460;28;20032;-58
2024/02/15 04:12:08;;;;;;;12.63;6.78;;;;;;;;;;5072813;28;20028;-57
2024/02/15 04:14:34;;;;;;;10.80;7.00;;;;;;;;;;5068028;28;20024;-57
2024/02/15 04:17:01;;;;;;;11.75;7.47;;;;;;;;;;5071293;28;20094;-60
2024/02/15 04:19:27;;;;;;;12.77;6.68;;;;;;;;;;5071918;28;20543;-60
2024/02/15 04:21:55;;;;;;;14.13;6.68;;;;;;;;;;5071741;28;20119;-61
2024/02/15 04:24:21;;;;;;;10.23;6.88;;;;;;;;;;5069838;28;20028;-60
2024/02/15 04:26:48;;;;;;;10.25;6.43;;;;;;;;;;5070679;28;20052;-61
2024/02/15 04:29:14;;;;;;;11.38;7.00;;;;;;;;;;5070417;28;20028;-60
2024/02/15 04:31:40;;;;;;;9.57;6.60;;;;;;;;;;5071792;28;20040;-60
2024/02/15 04:34:06;;;;;;;13.05;7.57;;;;;;;;;;5070578;28;20063;-60
2024/02/15 04:36:33;;;;;;;10.32;6.72;;;;;;;;;;5074683;28;20025;-60
2024/02/15 04:39:01;;;;;;;8.68;5.93;;;;;;;;;;5071969;28;20025;-60
2024/02/15 04:41:26;;;;;;;10.15;6.18;;;;;;;;;;5075567;28;20133;-60
2024/02/15 04:43:53;;;;;;;12.15;6.60;;;;;;;;;;5070425;28;20102;-60
2024/02/15 04:46:22;;;;;;;11.98;7.00;;;;;;;;;;5071650;28;20048;-61
2024/02/15 04:48:51;;;;;;;11.57;7.45;;;;;;;;;;5071181;28;20024;-60
2024/02/15 04:51:17;;;;;;;11.98;6.75;;;;;;;;;;5071350;28;20031;-60
2024/02/15 04:53:46;;;;;;;10.05;6.05;;;;;;;;;;5071400;28;20395;-61
2024/02/15 04:56:13;;;;;;;9.15;6.65;;;;;;;;;;5071823;28;20036;-60
2024/02/15 04:58:45;;;;;;;9.68;6.35;;;;;;;;;;5071623;28;20029;-60
2024/02/15 05:01:15;;;;;;;10.60;6.93;;;;;;;;;;5075446;28;20032;-59
2024/02/15 05:03:41;;;;;;;11.38;7.00;;;;;;;;;;5068828;28;20060;-60
2024/02/15 05:06:08;;;;;;;11.82;6.75;;;;;;;;;;5067932;28;20388;-60
2024/02/15 05:08:36;;;;;;;11.07;6.25;;;;;;;;;;5078270;28;20027;-60
2024/02/15 05:11:04;;;;;;;8.77;5.93;;;;;;;;;;5079243;28;20033;-60
2024/02/15 05:13:30;;;;;;;10.80;6.53;;;;;;;;;;5075130;28;20028;-61
2024/02/15 05:15:56;;;;;;;8.82;5.90;;;;;;;;;;5068719;28;20025;-60
2024/02/15 05:18:22;;;;;;;11.60;6.55;;;;;;;;;;5074827;28;20044;-61
2024/02/15 05:20:48;;;;;;;10.10;6.43;;;;;;;;;;5075227;28;20058;-61
2024/02/15 05:23:15;;;;;;;11.50;6.55;;;;;;;;;;5072882;28;20016;-61
2024/02/15 05:25:41;;;;;;;10.18;6.15;;;;;;;;;;5075307;28;20164;-61
2024/02/15 05:28:08;;;;;;;11.30;6.43;;;;;;;;;;5073697;28;20021;-59
2024/02/15 05:30:34;;;;;;;11.38;6.88;;;;;;;;;;5074674;28;20524;-59
2024/02/15 05:33:01;;;;;;;12.07;6.45;;;;;;;;;;5075026;28;20031;-59
2024/02/15 05:35:28;;;;;;;10.55;6.85;;;;;;;;;;5072036;28;20035;-59
2024/02/15 05:37:53;;;;;;;12.63;6.55;;;;;;;;;;5077028;28;20020;-59
2024/02/15 05:40:19;;;;;;;9.52;6.25;;;;;;;;;;5070245;28;20074;-60
2024/02/15 05:42:46;;;;;;;10.40;6.05;;;;;;;;;;5069043;28;20491;-59
2024/02/15 05:45:29;;;;;;;12.88;7.03;;;;;;;;;;5071784;28;20028;-59
2024/02/15 05:47:55;;;;;;;;;;;;;;;;;;5085838;28;20024;-58
2024/02/15 05:50:23;;;;;;;9.98;6.15;;;;;;;;;;5074799;28;20000;-60
2024/02/15 05:52:49;;;;;;;10.43;6.38;;;;;;;;;;5073227;28;20052;-59
2024/02/15 05:55:16;;;;;;;11.85;6.70;;;;;;;;;;5076716;28;20384;-59
2024/02/15 05:57:42;;;;;;;11.65;6.40;;;;;;;;;;5071814;28;20109;-60
2024/02/15 06:00:08;;;;;;;10.93;6.40;;;;;;;;;;5072036;28;20119;-59
2024/02/15 06:02:34;;;;;;;8.75;5.95;;;;;;;;;;5075472;28;20024;-59
2024/02/15 06:05:03;;;;;;;11.20;6.63;;;;;;;;;;5073867;28;20025;-59
2024/02/15 06:07:31;;;;;;;14.95;6.90;;;;;;;;;;5068104;28;20506;-59
2024/02/15 06:10:02;;;;;;;10.60;6.60;;;;;;;;;;5072525;28;20029;-58
2024/02/15 06:12:28;;;;;;;12.40;7.00;;;;;;;;;;5069417;28;20024;-59
2024/02/15 06:14:54;;;;;;;11.85;6.65;;;;;;;;;;5077100;28;20500;-60
2024/02/15 06:17:20;;;;;;;12.77;6.82;;;;;;;;;;5073399;28;20045;-59
2024/02/15 06:19:46;;;;;;;10.70;6.55;;;;;;;;;;5071813;28;20032;-60
2024/02/15 06:22:12;;;;;;;12.00;7.00;;;;;;;;;;5075993;28;20124;-59
2024/02/15 06:24:39;;;;;;;11.57;6.53;;;;;;;;;;5082230;28;20020;-59
2024/02/15 06:27:05;;;;;;;15.18;7.00;;;;;;;;;;5074579;28;20112;-60
2024/02/15 06:40:30;;;;;;;11.63;6.28;;;;;;;;;;5072921;28;20541;-60
2024/02/15 06:42:56;;;;;;;12.73;7.13;;;;;;;;;;5072006;28;20025;-61
2024/02/15 06:45:22;;;;;;;14.00;8.00;;;;;;;;;;5072931;28;20115;-61
2024/02/15 06:47:49;;;;;;;13.98;7.07;;;;;;;;;;5073039;28;20067;-61
2024/02/15 06:50:16;;;;;;;10.65;6.63;;;;;;;;;;5071787;28;20013;-61
2024/02/15 06:52:42;;;;;;;11.48;6.70;;;;;;;;;;5075309;28;20056;-61
2024/02/15 06:55:11;;;;;;;12.07;7.07;;;;;;;;;;5074626;28;20036;-61
2024/02/15 06:57:40;;;;;;;12.20;6.93;;;;;;;;;;5070661;28;20029;-61
2024/02/15 07:00:09;;;;;;;12.82;6.30;;;;;;;;;;5071780;28;20040;-61
2024/02/15 07:02:35;;;;;;;12.50;7.15;;;;;;;;;;5072881;28;20024;-61
2024/02/15 07:05:05;;;;;;;16.42;7.32;;;;;;;;;;5073031;28;20052;-61
2024/02/15 07:07:33;;;;;;;10.63;6.20;;;;;;;;;;5069378;28;20021;-61
2024/02/15 07:10:02;;;;;;;15.48;6.60;;;;;;;;;;5072877;28;20028;-61
2024/02/15 07:12:28;;;;;;;12.65;7.13;;;;;;;;;;5071231;28;20071;-61
2024/02/15 07:14:54;;;;;;;11.10;6.47;;;;;;;;;;5069576;28;20025;-61
2024/02/15 07:17:20;;;;;;;9.57;6.10;;;;;;;;;;5070599;28;20553;-61
2024/02/15 07:19:49;;;;;;;11.98;6.45;;;;;;;;;;5072500;28;20029;-61
2024/02/15 07:22:16;;;;;;;12.85;6.45;;;;;;;;;;5072220;28;20055;-61
2024/02/15 07:24:42;;;;;;;9.73;6.03;;;;;;;;;;5072650;28;20020;-61
2024/02/15 07:27:09;;;;;;;9.90;6.18;;;;;;;;;;5072423;28;20025;-60
2024/02/15 07:29:37;;;;;;;10.80;6.43;;;;;;;;;;5070773;28;20059;-61
2024/02/15 07:32:04;;;;;;;9.73;6.03;;;;;;;;;;5072542;28;20402;-61
2024/02/15 07:34:30;;;;;;;11.68;6.55;;;;;;;;;;5072590;28;20114;-61
2024/02/15 07:36:57;;;;;;;12.63;6.30;;;;;;;;;;5072335;28;20089;-61
2024/02/15 07:39:24;;;;;;;9.80;6.22;;;;;;;;;;5072288;28;20555;-61
2024/02/15 07:41:51;;;;;;;9.60;5.85;;;;;;;;;;5071870;28;20039;-61
2024/02/15 07:44:20;;;;;;;13.20;6.65;;;;;;;;;;5072360;28;20030;-61
2024/02/15 07:46:47;;;;;;;9.32;5.78;;;;;;;;;;5072307;28;20144;-62
2024/02/15 07:49:13;;;;;;;10.77;6.20;;;;;;;;;;5068913;28;20032;-62
2024/02/15 07:51:38;;;;;;;9.65;5.75;;;;;;;;;;5071591;28;20480;-62
2024/02/15 07:54:06;;;;;;;8.65;5.50;;;;;;;;;;5072098;28;20417;-62
2024/02/15 07:56:32;;;;;;;9.32;5.60;;;;;;;;;;5071836;28;20557;-62
2024/02/15 07:58:58;;;;;;;7.60;5.38;;;;;;;;;;5071955;28;20021;-62
2024/02/15 08:01:24;;;;;;;8.73;5.78;;;;;;;;;;5069509;28;20097;-62
2024/02/15 08:03:50;;;;;;;7.72;5.03;;;;;;;;;;5071891;28;20334;-62
2024/02/15 08:06:17;;;;;;;7.25;5.07;;;;;;;;;;5071805;28;20090;-62
2024/02/15 08:08:47;;;;;;;8.40;5.10;;;;;;;;;;5071789;28;20024;-61
2024/02/15 08:11:16;;;;;;;7.28;5.03;;;;;;;;;;5071555;28;20031;-62
2024/02/15 08:13:45;;;;;;;8.75;5.50;;;;;;;;;;5071938;28;20090;-62
2024/02/15 08:16:12;;;;;;;8.07;4.85;;;;;;;;;;5071589;28;20504;-62
2024/02/15 08:18:38;;;;;;;7.88;4.38;;;;;;;;;;5070423;28;20075;-62
2024/02/15 08:21:04;;;;;;;8.55;4.65;;;;;;;;;;5071486;28;20032;-62
2024/02/15 08:23:32;;;;;;;9.60;4.50;;;;;;;;;;5071388;28;20124;-62
2024/02/15 08:25:58;;;;;;;6.93;4.72;;;;;;;;;;5058189;28;20388;-62
2024/02/15 08:28:23;;;;;;;8.73;4.88;;;;;;;;;;5071644;28;20027;-62
2024/02/15 08:30:49;;;;;;;7.97;4.72;;;;;;;;;;5069196;28;20037;-62
2024/02/15 08:33:15;;;;;;;9.07;4.55;;;;;;;;;;5070658;28;20035;-63
2024/02/15 08:35:41;;;;;;;9.55;5.13;;;;;;;;;;5071331;28;20131;-62
2024/02/15 08:38:07;;;;;;;9.13;5.05;;;;;;;;;;5071210;28;20039;-62
2024/02/15 08:40:33;;;;;;;7.75;4.43;;;;;;;;;;5071240;28;20067;-62
2024/02/15 08:42:59;;;;;;;9.50;5.53;;;;;;;;;;5071523;28;20048;-62
2024/02/15 08:45:25;;;;;;;7.38;4.47;;;;;;;;;;5071422;28;20353;-62
2024/02/15 08:47:53;;;;;;;7.57;4.95;;;;;;;;;;5070010;28;20070;-62
2024/02/15 08:50:21;;;;;;;7.70;4.75;;;;;;;;;;5071296;28;20044;-63
2024/02/15 08:52:47;;;;;;;10.13;4.30;;;;;;;;;;5071080;28;20032;-62
2024/02/15 08:55:16;;;;;;;6.70;4.10;;;;;;;;;;5069338;28;20490;-62
2024/02/15 08:57:44;;;;;;;8.52;4.18;;;;;;;;;;5071367;28;20360;-59
2024/02/15 09:00:16;;;;;;;6.97;4.03;;;;;;;;;;5071288;28;20033;-59
2024/02/15 09:02:42;;;;;;;7.22;4.35;;;;;;;;;;5070976;28;20574;-59
2024/02/15 09:05:09;;;;;;;7.55;3.88;;;;;;;;;;5070965;28;20101;-60
2024/02/15 09:07:36;;;;;;;7.10;4.13;;;;;;;;;;5071271;28;20125;-59
2024/02/15 09:10:02;;;;;;;5.45;4.03;;;;;;;;;;5071211;28;20086;-61
2024/02/15 09:12:28;;;;;;;4.53;3.40;;;;;;;;;;5069506;28;20079;-60
2024/02/15 09:14:55;;;;;;;7.30;4.22;;;;;;;;;;5067627;28;20054;-60
2024/02/15 09:17:21;;;;;;;8.65;4.13;;;;;;;;;;5070843;28;20098;-61
2024/02/15 09:19:50;;;;;;;4.97;2.55;;;;;;;;;;5070745;28;20040;-60
2024/02/15 09:22:16;;;;;;;8.98;4.03;;;;;;;;;;5071095;28;20480;-60
2024/02/15 09:24:48;;;;;;;6.97;3.47;;;;;;;;;;5071183;28;20021;-60
2024/02/15 09:27:14;;;;;;;5.88;3.97;;;;;;;;;;5070707;28;20103;-60
2024/02/15 09:29:40;;;;;;;5.80;3.40;;;;;;;;;;5071186;28;20056;-60
2024/02/15 09:32:06;;;;;;;6.00;3.72;;;;;;;;;;5069304;28;20033;-60
2024/02/15 09:34:32;;;;;;;5.85;3.10;;;;;;;;;;5070835;28;20112;-60
2024/02/15 09:36:58;;;;;;;6.78;3.20;;;;;;;;;;5070894;28;20064;-60
2024/02/15 09:39:24;;;;;;;6.15;3.40;;;;;;;;;;5070821;28;20028;-60
2024/02/15 09:41:57;;;;;;;4.18;2.90;;;;;;;;;;5070985;28;20487;-60
2024/02/15 09:44:23;;;;;;;7.15;3.42;;;;;;;;;;5071571;28;20024;-60
2024/02/15 09:47:05;;;;;;;6.90;2.90;;;;;;;;;;5073952;28;20025;-60
2024/02/15 09:49:36;;;;;;;3.80;2.70;;;;;;;;;;5074721;28;20059;-61
2024/02/15 09:52:04;;;;;;;5.72;3.20;;;;;;;;;;5074593;28;20036;-60
2024/02/15 09:54:31;;;;;;;4.78;2.95;;;;;;;;;;5074342;28;20110;-60
2024/02/15 09:56:59;;;;;;;4.53;2.65;;;;;;;;;;5074553;28;20163;-60
2024/02/15 09:59:26;;;;;;;3.70;2.67;;;;;;;;;;5074025;28;20085;-60
2024/02/15 10:01:53;;;;;;;4.20;3.00;;;;;;;;;;5072764;28;20059;-60
2024/02/15 10:04:19;;;;;;;4.43;2.53;;;;;;;;;;5073985;28;20028;-60
2024/02/15 10:06:44;;;;;;;3.47;2.40;;;;;;;;;;5074383;28;20029;-63
2024/02/15 10:09:29;;;;;;;3.05;2.20;;;;;;;;;;5074001;28;20029;-63
2024/02/15 10:12:00;;;;;;;4.18;2.00;;;;;;;;;;5074098;28;20024;-63
2024/02/15 10:14:27;;;;;;;2.75;2.20;;;;;;;;;;5074055;28;20033;-63
2024/02/15 10:16:54;;;;;;;5.47;2.22;;;;;;;;;;5072503;28;20564;-63
2024/02/15 10:19:24;;;;;;;3.20;2.30;;;;;;;;;;5072595;28;20488;-63
2024/02/15 10:21:51;;;;;;;4.85;2.33;;;;;;;;;;5073861;28;20029;-63
2024/02/15 10:24:19;;;;;;;4.13;2.10;;;;;;;;;;5073517;28;20042;-63
2024/02/15 10:26:48;;;;;;;3.15;1.83;;;;;;;;;;5073954;28;20103;-63
2024/02/15 10:29:17;;;;;;;5.63;2.08;;;;;;;;;;5073751;28;20456;-63
2024/02/15 10:31:56;;;;;;;3.03;2.00;;;;;;;;;;5087477;28;20070;-63
2024/02/15 10:34:23;;;;;;;2.75;1.52;;;;;;;;;;5073504;28;20403;-63
2024/02/15 10:36:49;;;;;;;3.35;2.20;;;;;;;;;;5073332;28;20048;-63
2024/02/15 10:39:19;;;;;;;2.92;2.05;;;;;;;;;;5073719;28;20491;-63
2024/02/15 10:41:53;;;;;;;3.00;1.85;;;;;;;;;;5073607;28;20028;-63
2024/02/15 10:44:20;;;;;;;2.90;1.80;;;;;;;;;;5073421;28;20118;-63
2024/02/15 10:46:50;;;;;;;2.80;1.73;;;;;;;;;;5073502;28;20028;-63
2024/02/15 10:49:16;;;;;;;2.47;1.58;;;;;;;;;;5071674;28;20025;-63
2024/02/15 10:51:44;;;;;;;2.22;1.55;;;;;;;;;;5073926;28;20025;-62
2024/02/15 10:54:15;;;;;;;2.45;1.65;;;;;;;;;;5073478;28;20392;-63
2024/02/15 10:56:47;;;;;;;3.10;1.75;;;;;;;;;;5072359;28;20017;-63
2024/02/15 10:59:17;;;;;;;3.83;1.42;;;;;;;;;;5073298;28;20040;-63
2024/02/15 11:01:44;;;;;;;3.53;1.80;;;;;;;;;;5073183;28;20032;-63
2024/02/15 11:04:11;;;;;;;2.58;1.30;;;;;;;;;;5072865;28;20031;-63
2024/02/15 11:06:41;;;;;;;2.05;1.20;;;;;;;;;;5071652;28;20032;-63
2024/02/15 11:09:08;;;;;;;3.88;1.88;;;;;;;;;;5073000;28;20029;-63
2024/02/15 11:11:37;;;;;;;5.38;1.85;;;;;;;;;;5072797;28;20027;-63
2024/02/15 11:14:22;;;;;;;3.25;1.80;;;;;;;;;;5072862;28;20369;-63
2024/02/15 11:16:48;;;;;;;2.42;1.73;;;;;;;;;;5067933;28;20055;-59
2024/02/15 11:19:40;;;;;;;2.05;1.35;;;;;;;;;;5072574;28;20070;-60
2024/02/15 11:22:10;;;;;;;2.40;1.75;;;;;;;;;;5072551;28;20025;-58
2024/02/15 11:24:37;;;;;;;3.38;1.60;;;;;;;;;;5072624;28;20059;-59
2024/02/15 11:27:13;;;;;;;2.42;1.65;;;;;;;;;;5072384;28;20911;-59
2024/02/15 11:30:03;;;;;;;4.50;1.60;;;;;;;;;;5072919;28;20056;-60
2024/02/15 11:32:36;;;;;;;2.15;1.65;;;;;;;;;;5064110;28;20032;-59
2024/02/15 11:35:13;;;;;;;2.55;1.73;;;;;;;;;;5070996;28;20028;-60
2024/02/15 11:38:34;;;;;;;3.83;1.55;;;;;;;;;;5072575;28;20546;-59
2024/02/15 11:40:43;;;;;;;2.65;1.42;;;;;;;;;;5059397;28;20400;-59
2024/02/15 11:43:10;;;;;;;2.70;1.60;;;;;;;;;;5072143;28;20059;-60
2024/02/15 11:45:43;;;;;;;3.88;1.63;;;;;;;;;;5071980;28;20020;-59
2024/02/15 11:48:10;;;;;;;4.35;1.65;;;;;;;;;;5072252;28;20063;-58
2024/02/15 11:50:37;;;;;;;2.20;1.30;;;;;;;;;;5070502;28;20036;-59
2024/02/15 11:53:10;;;;;;;2.72;1.45;;;;;;;;;;5071616;28;20553;-60
2024/02/15 11:55:37;;;;;;;1.90;1.40;;;;;;;;;;5072042;28;20498;-59
2024/02/15 12:19:55;;;;;;;2.42;1.13;;;;;;;;;;5071843;28;20124;-59
2024/02/15 12:22:22;;;;;;;1.65;0.82;;;;;;;;;;5070367;28;20029;-59
2024/02/15 12:24:55;;;;;;;4.47;1.35;;;;;;;;;;5069322;28;20040;-59
2024/02/15 12:27:21;;;;;;;1.50;1.00;;;;;;;;;;5071521;28;20031;-60
2024/02/15 12:29:57;;;;;;;1.48;1.10;;;;;;;;;;5067332;28;20036;-60
2024/02/15 12:32:24;;;;;;;2.03;1.33;;;;;;;;;;5071586;28;20025;-60
2024/02/15 12:34:51;;;;;;;1.30;1.00;;;;;;;;;;5067981;28;20456;-60
2024/02/15 12:37:18;;;;;;;2.00;1.00;;;;;;;;;;5067263;28;20032;-60
2024/02/15 12:39:44;;;;;;;3.60;1.10;;;;;;;;;;5070814;28;20500;-61
2024/02/15 12:42:12;;;;;;;1.80;1.20;;;;;;;;;;5071438;28;20539;-59
2024/02/15 12:44:45;;;;;;;2.85;1.30;;;;;;;;;;5071237;28;20025;-59
2024/02/15 12:47:17;;;;;;;1.58;1.10;;;;;;;;;;5071596;28;20055;-60
2024/02/15 12:49:43;;;;;;;3.88;1.48;;;;;;;;;;5071085;28;20028;-60
2024/02/15 12:52:28;;;;;;;3.80;1.02;;;;;;;;;;5069880;28;20044;-60
2024/02/15 12:55:08;;;;;;;2.10;1.00;;;;;;;;;;5068894;28;20234;-60
2024/02/15 12:57:35;;;;;;;2.22;1.25;;;;;;;;;;5071206;28;20098;-59
2024/02/15 13:00:10;;;;;;;5.13;1.20;;;;;;;;;;5078257;28;20032;-60
2024/02/15 13:02:37;;;;;;;3.35;1.25;;;;;;;;;;5073879;28;20055;-60
2024/02/15 13:05:03;;;;;;;2.42;1.00;;;;;;;;;;5071127;28;20031;-60
2024/02/15 13:07:29;;;;;;;2.05;0.95;;;;;;;;;;5073525;28;20103;-61
2024/02/15 13:09:55;;;;;;;2.95;0.80;;;;;;;;;;5072869;28;20048;-60
2024/02/15 13:12:21;;;;;;;1.92;1.30;;;;;;;;;;5070337;28;20028;-60
2024/02/15 13:14:47;;;;;;;5.95;1.20;;;;;;;;;;5074340;28;20028;-60
2024/02/15 13:17:13;;;;;;;3.17;1.13;;;;;;;;;;5072640;28;20505;-60
2024/02/15 13:19:39;;;;;;;6.40;1.70;;;;;;;;;;5072015;28;20051;-60
2024/02/15 13:22:08;;;;;;;3.17;1.00;;;;;;;;;;5075808;28;20356;-60
2024/02/15 13:24:38;;;;;;;5.30;1.23;;;;;;;;;;5079162;28;20024;-60
2024/02/15 13:27:04;;;;;;;1.67;1.25;;;;;;;;;;5079336;28;20365;-60
2024/02/15 13:29:32;;;;;;;2.00;1.25;;;;;;;;;;5068405;28;20063;-60
2024/02/15 13:31:59;;;;;;;2.90;1.98;;;;;;;;;;5073959;28;20025;-60
2024/02/15 13:34:25;;;;;;;2.67;1.00;;;;;;;;;;5071802;28;20059;-60
2024/02/15 13:36:51;;;;;;;2.95;1.17;;;;;;;;;;5074565;28;20029;-59
2024/02/15 13:39:21;;;;;;;2.88;1.08;;;;;;;;;;5073012;28;20017;-59
2024/02/15 13:41:47;;;;;;;3.10;1.35;;;;;;;;;;5071906;28;20162;-60
2024/02/15 13:44:14;;;;;;;4.00;1.40;;;;;;;;;;5073833;28;20528;-59
2024/02/15 13:46:42;;;;;;;1.38;1.02;;;;;;;;;;5075284;28;20044;-58
2024/02/15 13:49:08;;;;;;;3.70;1.48;;;;;;;;;;5076998;28;20028;-59
2024/02/15 13:51:34;;;;;;;2.75;0.90;;;;;;;;;;5073654;28;20020;-59
2024/02/15 13:54:00;;;;;;;1.70;1.20;;;;;;;;;;5076292;28;20683;-60
2024/02/15 13:56:26;;;;;;;3.35;1.02;;;;;;;;;;5075621;28;20043;-59
2024/02/15 13:58:52;;;;;;;1.83;1.02;;;;;;;;;;5074084;28;20033;-59
2024/02/15 14:01:18;;;;;;;2.05;1.40;;;;;;;;;;5077922;28;20024;-59
2024/02/15 14:03:45;;;;;;;1.88;1.10;;;;;;;;;;5071524;28;20033;-59
2024/02/15 14:06:11;;;;;;;1.77;1.60;;;;;;;;;;5073032;28;20020;-59
2024/02/15 14:08:37;;;;;;;2.65;1.58;;;;;;;;;;5073355;28;20039;-59
2024/02/15 14:11:05;;;;;;;5.18;2.67;;;;;;;;;;5073857;28;20040;-59
2024/02/15 14:13:31;;;;;;;3.47;2.10;;;;;;;;;;5072332;28;20037;-59
2024/02/15 14:15:57;;;;;;;2.45;1.48;;;;;;;;;;5072512;28;20035;-59
2024/02/15 14:18:23;;;;;;;3.95;1.92;;;;;;;;;;5072752;28;20028;-59
2024/02/15 14:20:50;;;;;;;3.42;1.98;;;;;;;;;;5073227;28;20428;-60
2024/02/15 14:23:16;;;;;;;4.35;2.38;;;;;;;;;;5073973;28;20149;-59
2024/02/15 14:25:44;;;;;;;3.13;1.95;;;;;;;;;;5073808;28;20021;-58
2024/02/15 14:28:10;;;;;;;4.05;1.77;;;;;;;;;;5076520;28;20487;-59
2024/02/15 14:33:22;;;;;;;2.92;1.80;;;;;;;;;;5073335;28;20469;-58
2024/02/15 14:35:48;;;;;;;2.42;1.42;;;;;;;;;;5071516;28;20581;-58
2024/02/15 14:38:16;;;;;;;3.22;1.80;;;;;;;;;;5072684;28;20020;-59
2024/02/15 14:40:44;;;;;;;3.65;1.88;;;;;;;;;;5073465;28;20039;-60
2024/02/15 14:43:12;;;;;;;5.88;1.70;;;;;;;;;;5073297;28;20028;-59
2024/02/15 14:45:40;;;;;;;5.30;1.83;;;;;;;;;;5073356;28;20021;-58
2024/02/15 14:48:09;;;;;;;2.30;1.65;;;;;;;;;;5073221;28;20058;-62
2024/02/15 14:50:35;;;;;;;3.22;1.60;;;;;;;;;;5071827;28;20078;-63
2024/02/15 14:53:01;;;;;;;7.53;2.03;;;;;;;;;;5072204;28;20446;-63
2024/02/15 14:55:28;;;;;;;3.75;1.83;;;;;;;;;;5081996;28;20427;-63
2024/02/15 14:57:54;;;;;;;2.70;1.90;;;;;;;;;;5078444;28;20479;-63
2024/02/15 15:00:21;;;;;;;2.55;1.90;;;;;;;;;;5072571;28;20028;-64
2024/02/15 15:02:48;;;;;;;4.63;1.80;;;;;;;;;;5073214;28;20107;-64
2024/02/15 15:13:34;;;;;;;7.47;4.40;;;;;;;;;;5067052;28;20059;-64
2024/02/15 15:16:02;;;;;;;7.43;3.72;;;;;;;;;;5072463;28;20168;-64
2024/02/15 15:18:28;;;;;;;7.75;3.50;;;;;;;;;;5070342;28;20082;-64
2024/02/15 15:20:55;;;;;;;5.13;2.80;;;;;;;;;;5070821;28;20032;-64
2024/02/15 15:23:22;;;;;;;3.17;2.08;;;;;;;;;;5072576;28;20739;-63